Time;durP1;ratioP1;P1;durP2;ratioP2;P2;SDS_P1;SDS_P2;PMS_P1;PMS_P2;Temp;Humidity;BMP_temperature;BMP_pressure;BME280_temperature;BME280_humidity;BME280_pressure;Samples;Min_cycle;Max_cycle;Signal;HPM_P1;HPM_P2
2022/07/26 00:00:19;;;;;;;0.10;0.10;;;;;;;;;;5042666;28;20457;-93
2022/07/26 00:02:45;;;;;;;0.10;0.10;;;;;;;;;;5052817;28;20419;-91
2022/07/26 00:05:12;;;;;;;0.00;0.00;;;;;;;;;;5040850;28;21018;-92
2022/07/26 00:07:38;;;;;;;0.10;0.10;;;;;;;;;;5046850;28;20914;-92
2022/07/26 00:10:05;;;;;;;0.10;0.10;;;;;;;;;;5059404;28;20421;-93
2022/07/26 00:12:31;;;;;;;0.10;0.10;;;;;;;;;;5044936;28;20814;-93
2022/07/26 00:14:57;;;;;;;0.40;0.40;;;;;;;;;;5047348;28;20429;-91
2022/07/26 00:17:23;;;;;;;0.00;0.00;;;;;;;;;;5049737;28;20448;-92
2022/07/26 00:19:49;;;;;;;0.10;0.10;;;;;;;;;;5042767;28;21096;-91
2022/07/26 00:22:33;;;;;;;0.10;0.10;;;;;;;;;;5048109;28;20447;-93
2022/07/26 00:24:59;;;;;;;0.10;0.10;;;;;;;;;;5037165;28;20438;-90
2022/07/26 00:27:26;;;;;;;0.10;0.10;;;;;;;;;;5050732;28;20449;-90
2022/07/26 00:29:52;;;;;;;0.10;0.10;;;;;;;;;;5063070;28;20430;-91
2022/07/26 00:32:18;;;;;;;0.00;0.00;;;;;;;;;;5056670;28;20515;-86
2022/07/26 00:34:44;;;;;;;0.10;0.10;;;;;;;;;;5046998;28;20882;-93
2022/07/26 00:37:10;;;;;;;0.00;0.00;;;;;;;;;;5056435;28;20950;-90
2022/07/26 00:39:36;;;;;;;0.20;0.20;;;;;;;;;;5075816;28;20917;-87
2022/07/26 00:42:02;;;;;;;0.10;0.10;;;;;;;;;;5041426;28;20455;-91
2022/07/26 00:44:41;;;;;;;0.10;0.10;;;;;;;;;;5061808;28;20430;-91
2022/07/26 00:47:07;;;;;;;0.10;0.10;;;;;;;;;;5034988;28;20426;-92
2022/07/26 00:49:33;;;;;;;0.00;0.00;;;;;;;;;;5050334;28;20428;-91
2022/07/26 00:51:59;;;;;;;0.10;0.10;;;;;;;;;;5056084;28;20474;-91
2022/07/26 00:54:25;;;;;;;0.20;0.15;;;;;;;;;;5048471;28;20438;-89
2022/07/26 00:56:52;;;;;;;0.10;0.10;;;;;;;;;;5053283;28;20432;-83
2022/07/26 00:59:18;;;;;;;0.00;0.00;;;;;;;;;;5054659;28;20429;-91
2022/07/26 01:01:44;;;;;;;0.10;0.10;;;;;;;;;;5043184;28;20508;-93
2022/07/26 01:04:10;;;;;;;0.30;0.20;;;;;;;;;;5044712;28;20518;-92
2022/07/26 01:06:36;;;;;;;0.10;0.10;;;;;;;;;;5053546;28;20975;-90
2022/07/26 01:09:04;;;;;;;0.10;0.10;;;;;;;;;;5045954;28;20433;-92
2022/07/26 01:11:30;;;;;;;0.00;0.00;;;;;;;;;;5052845;28;20428;-91
2022/07/26 01:13:56;;;;;;;0.00;0.00;;;;;;;;;;5047975;28;20449;-93
2022/07/26 01:16:22;;;;;;;0.00;0.00;;;;;;;;;;5054592;28;20430;-91
2022/07/26 01:18:48;;;;;;;0.10;0.10;;;;;;;;;;5045963;28;20840;-92
2022/07/26 01:21:15;;;;;;;0.00;0.00;;;;;;;;;;5047490;28;21289;-90
2022/07/26 01:23:42;;;;;;;0.10;0.10;;;;;;;;;;5052603;28;20440;-93
2022/07/26 01:26:08;;;;;;;0.08;0.08;;;;;;;;;;5047553;28;20520;-94
2022/07/26 01:28:36;;;;;;;0.10;0.10;;;;;;;;;;5047191;28;20902;-85
2022/07/26 01:31:02;;;;;;;0.00;0.00;;;;;;;;;;5039634;28;20426;-88
2022/07/26 01:33:28;;;;;;;0.00;0.00;;;;;;;;;;5045163;28;20426;-91
2022/07/26 01:35:54;;;;;;;0.10;0.10;;;;;;;;;;5057009;28;20658;-90
2022/07/26 01:38:20;;;;;;;0.05;0.05;;;;;;;;;;5041458;28;20430;-92
2022/07/26 01:40:46;;;;;;;0.00;0.00;;;;;;;;;;5044662;28;20934;-92
2022/07/26 01:43:13;;;;;;;0.00;0.00;;;;;;;;;;5041034;28;20905;-85
2022/07/26 01:45:39;;;;;;;1.80;0.60;;;;;;;;;;5049851;28;20428;-94
2022/07/26 01:48:05;;;;;;;0.00;0.00;;;;;;;;;;5048618;28;20595;-93
2022/07/26 01:50:31;;;;;;;0.10;0.10;;;;;;;;;;5046038;28;20422;-87
2022/07/26 01:52:57;;;;;;;0.00;0.00;;;;;;;;;;5061274;28;20417;-89
2022/07/26 01:55:23;;;;;;;0.00;0.00;;;;;;;;;;5043896;28;20432;-92
2022/07/26 01:57:49;;;;;;;0.10;0.10;;;;;;;;;;5057468;28;20429;-92
2022/07/26 02:00:15;;;;;;;0.10;0.10;;;;;;;;;;5052246;28;20576;-93
2022/07/26 02:02:41;;;;;;;0.00;0.00;;;;;;;;;;5040077;28;20426;-94
2022/07/26 02:05:08;;;;;;;0.30;0.20;;;;;;;;;;5050901;28;20512;-92
2022/07/26 02:07:42;;;;;;;0.10;0.10;;;;;;;;;;5032740;28;20435;-91
2022/07/26 02:10:09;;;;;;;0.00;0.00;;;;;;;;;;5039459;28;20427;-93
2022/07/26 02:12:35;;;;;;;0.03;0.03;;;;;;;;;;5053157;28;20423;-93
2022/07/26 02:15:02;;;;;;;0.10;0.10;;;;;;;;;;5063645;28;20415;-91
2022/07/26 02:17:28;;;;;;;0.00;0.00;;;;;;;;;;5030334;28;20433;-91
2022/07/26 02:19:54;;;;;;;0.10;0.10;;;;;;;;;;5053698;28;20425;-93
2022/07/26 02:22:20;;;;;;;0.03;0.03;;;;;;;;;;5043516;28;20500;-89
2022/07/26 02:24:47;;;;;;;0.10;0.10;;;;;;;;;;5056875;28;20469;-87
2022/07/26 02:27:13;;;;;;;0.38;0.38;;;;;;;;;;5053605;28;20419;-86
2022/07/26 02:29:39;;;;;;;0.10;0.10;;;;;;;;;;5048358;28;20611;-87
2022/07/26 02:32:05;;;;;;;0.10;0.10;;;;;;;;;;5045167;28;20434;-89
2022/07/26 02:34:31;;;;;;;0.10;0.10;;;;;;;;;;5059940;28;20481;-87
2022/07/26 02:36:58;;;;;;;0.10;0.10;;;;;;;;;;5057339;28;20430;-88
2022/07/26 02:39:27;;;;;;;0.00;0.00;;;;;;;;;;5056775;28;20417;-88
2022/07/26 02:41:54;;;;;;;0.10;0.10;;;;;;;;;;5029496;28;20845;-89
2022/07/26 02:44:20;;;;;;;0.10;0.10;;;;;;;;;;5044683;28;20423;-90
2022/07/26 02:46:46;;;;;;;0.00;0.00;;;;;;;;;;5053653;28;20437;-84
2022/07/26 02:49:12;;;;;;;0.10;0.10;;;;;;;;;;5058711;28;20534;-91
2022/07/26 02:51:38;;;;;;;0.10;0.10;;;;;;;;;;5054383;28;20698;-90
2022/07/26 02:54:05;;;;;;;0.00;0.00;;;;;;;;;;5044179;28;20430;-89
2022/07/26 02:56:31;;;;;;;0.10;0.10;;;;;;;;;;5026581;28;20436;-84
2022/07/26 02:58:57;;;;;;;0.10;0.10;;;;;;;;;;5048114;28;20493;-89
2022/07/26 03:01:23;;;;;;;0.10;0.10;;;;;;;;;;5040344;28;20432;-90
2022/07/26 03:03:49;;;;;;;0.08;0.08;;;;;;;;;;5043437;28;20905;-85
2022/07/26 03:06:15;;;;;;;0.15;0.10;;;;;;;;;;5045767;28;20425;-86
2022/07/26 03:08:41;;;;;;;0.10;0.10;;;;;;;;;;5048063;28;20566;-86
2022/07/26 03:11:07;;;;;;;0.10;0.10;;;;;;;;;;5050141;28;20463;-87
2022/07/26 03:13:34;;;;;;;0.10;0.10;;;;;;;;;;5041793;28;20425;-87
2022/07/26 03:16:00;;;;;;;0.40;0.20;;;;;;;;;;5035978;28;20768;-87
2022/07/26 03:18:26;;;;;;;0.00;0.00;;;;;;;;;;5050768;28;20544;-86
2022/07/26 03:20:52;;;;;;;0.10;0.10;;;;;;;;;;5050810;28;20449;-85
2022/07/26 03:23:18;;;;;;;0.10;0.10;;;;;;;;;;5050509;28;20419;-86
2022/07/26 03:25:44;;;;;;;0.10;0.10;;;;;;;;;;5055262;28;20433;-85
2022/07/26 03:28:10;;;;;;;0.30;0.20;;;;;;;;;;5036471;28;20434;-87
2022/07/26 03:30:36;;;;;;;0.10;0.10;;;;;;;;;;5056743;28;20500;-86
2022/07/26 03:33:02;;;;;;;0.10;0.10;;;;;;;;;;5043757;28;20424;-83
2022/07/26 03:35:28;;;;;;;0.10;0.10;;;;;;;;;;5055253;28;20427;-85
2022/07/26 03:37:54;;;;;;;0.00;0.00;;;;;;;;;;5036622;28;20909;-87
2022/07/26 03:40:20;;;;;;;0.10;0.10;;;;;;;;;;5043145;28;20464;-87
2022/07/26 03:42:47;;;;;;;0.00;0.00;;;;;;;;;;5038618;28;20432;-86
2022/07/26 03:45:14;;;;;;;0.10;0.10;;;;;;;;;;5034028;28;20439;-84
2022/07/26 03:47:40;;;;;;;0.00;0.00;;;;;;;;;;5048735;28;20437;-87
2022/07/26 03:50:06;;;;;;;0.10;0.10;;;;;;;;;;5055083;28;20431;-85
2022/07/26 03:52:33;;;;;;;0.10;0.10;;;;;;;;;;5052783;28;20434;-85
2022/07/26 03:54:59;;;;;;;0.00;0.00;;;;;;;;;;5057419;28;20424;-87
2022/07/26 03:57:25;;;;;;;0.10;0.10;;;;;;;;;;5043700;28;20424;-87
2022/07/26 03:59:51;;;;;;;0.00;0.00;;;;;;;;;;5052081;28;20456;-87
2022/07/26 04:02:17;;;;;;;0.00;0.00;;;;;;;;;;5041569;28;20483;-87
2022/07/26 04:04:43;;;;;;;0.10;0.10;;;;;;;;;;5050803;28;20972;-83
2022/07/26 04:07:09;;;;;;;0.00;0.00;;;;;;;;;;5049995;28;20934;-87
2022/07/26 04:09:35;;;;;;;0.00;0.00;;;;;;;;;;5041048;28;20477;-87
2022/07/26 04:12:01;;;;;;;0.07;0.07;;;;;;;;;;5040421;28;20434;-87
2022/07/26 04:14:27;;;;;;;0.00;0.00;;;;;;;;;;5037170;28;20421;-87
2022/07/26 04:16:54;;;;;;;0.00;0.00;;;;;;;;;;5049877;28;20494;-85
2022/07/26 04:19:20;;;;;;;0.10;0.10;;;;;;;;;;5047831;28;20421;-82
2022/07/26 04:21:46;;;;;;;0.20;0.20;;;;;;;;;;5044635;28;20427;-87
2022/07/26 04:24:12;;;;;;;0.10;0.10;;;;;;;;;;5046207;28;20459;-89
2022/07/26 04:26:38;;;;;;;0.10;0.10;;;;;;;;;;5048630;28;20433;-83
2022/07/26 04:29:04;;;;;;;0.00;0.00;;;;;;;;;;5055588;28;20454;-84
2022/07/26 04:31:30;;;;;;;0.10;0.10;;;;;;;;;;5035997;28;20782;-84
2022/07/26 04:33:56;;;;;;;0.00;0.00;;;;;;;;;;5049140;28;21067;-86
2022/07/26 04:36:22;;;;;;;0.10;0.10;;;;;;;;;;5052940;28;20431;-84
2022/07/26 04:38:48;;;;;;;0.10;0.10;;;;;;;;;;5048983;28;20503;-81
2022/07/26 04:41:14;;;;;;;0.10;0.10;;;;;;;;;;5051733;28;20430;-82
2022/07/26 04:43:40;;;;;;;0.10;0.10;;;;;;;;;;5059762;28;20981;-84
2022/07/26 04:46:06;;;;;;;0.00;0.00;;;;;;;;;;5046801;28;20504;-83
2022/07/26 04:48:32;;;;;;;0.10;0.10;;;;;;;;;;5042220;28;20425;-90
2022/07/26 04:51:00;;;;;;;0.10;0.10;;;;;;;;;;5030747;28;20438;-89
2022/07/26 04:53:26;;;;;;;0.10;0.10;;;;;;;;;;5053168;28;20913;-90
2022/07/26 04:55:52;;;;;;;0.00;0.00;;;;;;;;;;5056618;28;20483;-89
2022/07/26 04:58:18;;;;;;;0.10;0.10;;;;;;;;;;5041186;28;20496;-89
2022/07/26 05:00:44;;;;;;;0.10;0.10;;;;;;;;;;5043289;28;20433;-81
2022/07/26 05:03:10;;;;;;;0.00;0.00;;;;;;;;;;5054114;28;20545;-79
2022/07/26 05:05:36;;;;;;;0.20;0.20;;;;;;;;;;5064407;28;20505;-84
2022/07/26 05:08:02;;;;;;;0.10;0.10;;;;;;;;;;5060141;28;20512;-81
2022/07/26 05:10:30;;;;;;;0.00;0.00;;;;;;;;;;5052933;28;20983;-82
2022/07/26 05:12:56;;;;;;;0.10;0.10;;;;;;;;;;5053482;28;20454;-88
2022/07/26 05:15:22;;;;;;;0.30;0.30;;;;;;;;;;5035590;28;20437;-88
2022/07/26 05:17:48;;;;;;;0.00;0.00;;;;;;;;;;5043034;28;21403;-89
2022/07/26 05:20:15;;;;;;;0.00;0.00;;;;;;;;;;5041333;28;20422;-89
2022/07/26 05:22:42;;;;;;;0.10;0.10;;;;;;;;;;5042466;28;20430;-91
2022/07/26 05:25:09;;;;;;;0.03;0.03;;;;;;;;;;5039059;28;20423;-90
2022/07/26 05:27:35;;;;;;;0.10;0.10;;;;;;;;;;5039892;28;20508;-91
2022/07/26 05:30:01;;;;;;;0.10;0.10;;;;;;;;;;5044584;28;20429;-90
2022/07/26 05:32:27;;;;;;;0.00;0.00;;;;;;;;;;5047367;28;20446;-92
2022/07/26 05:34:53;;;;;;;0.00;0.00;;;;;;;;;;5032675;28;20561;-91
2022/07/26 05:37:19;;;;;;;0.10;0.10;;;;;;;;;;5030524;28;20974;-92
2022/07/26 05:39:45;;;;;;;0.00;0.00;;;;;;;;;;5034500;28;20464;-91
2022/07/26 05:42:11;;;;;;;0.03;0.03;;;;;;;;;;5039025;28;20942;-91
2022/07/26 05:44:37;;;;;;;0.00;0.00;;;;;;;;;;5047351;28;20490;-90
2022/07/26 05:47:03;;;;;;;0.00;0.00;;;;;;;;;;5047889;28;20425;-91
2022/07/26 05:49:29;;;;;;;0.10;0.10;;;;;;;;;;5048783;28;20511;-91
2022/07/26 05:51:55;;;;;;;0.00;0.00;;;;;;;;;;5051384;28;20466;-92
2022/07/26 05:54:21;;;;;;;0.10;0.10;;;;;;;;;;5035512;28;20435;-91
2022/07/26 05:56:47;;;;;;;0.00;0.00;;;;;;;;;;5040868;28;20442;-92
2022/07/26 05:59:13;;;;;;;0.80;0.30;;;;;;;;;;5029836;28;20508;-84
2022/07/26 06:01:39;;;;;;;0.00;0.00;;;;;;;;;;5031086;28;20927;-90
2022/07/26 06:04:07;;;;;;;0.10;0.10;;;;;;;;;;5046540;28;20453;-91
2022/07/26 06:06:33;;;;;;;0.00;0.00;;;;;;;;;;5041758;28;20454;-91
2022/07/26 06:08:59;;;;;;;0.20;0.20;;;;;;;;;;5036526;28;20429;-91
2022/07/26 06:11:25;;;;;;;0.10;0.10;;;;;;;;;;5048057;28;20456;-92
2022/07/26 06:13:51;;;;;;;0.00;0.00;;;;;;;;;;5047416;28;20419;-91
2022/07/26 06:16:17;;;;;;;0.00;0.00;;;;;;;;;;5040535;28;20897;-88
2022/07/26 06:18:44;;;;;;;0.10;0.10;;;;;;;;;;5045802;28;20801;-91
2022/07/26 06:21:10;;;;;;;0.10;0.10;;;;;;;;;;5043117;28;20426;-91
2022/07/26 06:23:36;;;;;;;0.00;0.00;;;;;;;;;;5015970;28;20461;-91
2022/07/26 06:26:03;;;;;;;0.10;0.10;;;;;;;;;;5047837;28;20425;-92
2022/07/26 06:28:29;;;;;;;0.00;0.00;;;;;;;;;;5049274;28;20508;-92
2022/07/26 06:30:55;;;;;;;0.00;0.00;;;;;;;;;;5050051;28;20445;-92
2022/07/26 06:33:21;;;;;;;0.00;0.00;;;;;;;;;;5048834;28;20422;-91
2022/07/26 06:35:47;;;;;;;0.00;0.00;;;;;;;;;;5038702;28;20429;-92
2022/07/26 06:38:13;;;;;;;0.10;0.10;;;;;;;;;;5039539;28;20570;-90
2022/07/26 06:40:39;;;;;;;1.00;0.40;;;;;;;;;;5048092;28;20421;-91
2022/07/26 06:43:05;;;;;;;0.10;0.10;;;;;;;;;;5032268;28;20434;-92
2022/07/26 06:45:32;;;;;;;0.10;0.10;;;;;;;;;;5019167;28;20431;-90
2022/07/26 06:47:58;;;;;;;0.10;0.10;;;;;;;;;;5043056;28;20427;-88
2022/07/26 06:50:24;;;;;;;0.10;0.10;;;;;;;;;;5043366;28;20799;-92
2022/07/26 06:52:50;;;;;;;0.10;0.10;;;;;;;;;;5047336;28;20444;-90
2022/07/26 06:55:17;;;;;;;0.00;0.00;;;;;;;;;;5040891;28;20425;-84
2022/07/26 06:57:43;;;;;;;2.00;0.50;;;;;;;;;;5032691;28;20439;-93
2022/07/26 07:00:09;;;;;;;0.05;0.05;;;;;;;;;;5033838;28;20477;-87
2022/07/26 07:02:35;;;;;;;0.10;0.10;;;;;;;;;;5047978;28;20418;-92
2022/07/26 07:05:02;;;;;;;0.00;0.00;;;;;;;;;;5042262;28;20434;-90
2022/07/26 07:07:28;;;;;;;0.10;0.10;;;;;;;;;;5030592;28;20429;-84
2022/07/26 07:09:54;;;;;;;0.03;0.03;;;;;;;;;;5032725;28;20423;-84
2022/07/26 07:12:20;;;;;;;0.00;0.00;;;;;;;;;;5037968;28;20451;-86
2022/07/26 07:14:46;;;;;;;0.10;0.10;;;;;;;;;;5006507;28;20436;-85
2022/07/26 07:17:12;;;;;;;0.10;0.10;;;;;;;;;;5030476;28;20441;-85
2022/07/26 07:19:38;;;;;;;0.10;0.10;;;;;;;;;;5032765;28;20427;-78
2022/07/26 07:22:05;;;;;;;0.00;0.00;;;;;;;;;;5029076;28;20479;-81
2022/07/26 07:24:31;;;;;;;0.00;0.00;;;;;;;;;;5030163;28;20912;-86
2022/07/26 07:27:00;;;;;;;0.10;0.10;;;;;;;;;;5031004;28;20434;-86
2022/07/26 07:29:26;;;;;;;0.10;0.10;;;;;;;;;;5028772;28;20431;-86
2022/07/26 07:31:52;;;;;;;0.10;0.10;;;;;;;;;;5032357;28;20439;-89
2022/07/26 07:34:21;;;;;;;0.05;0.05;;;;;;;;;;5009194;28;20425;-82
2022/07/26 07:36:47;;;;;;;0.10;0.10;;;;;;;;;;5039893;28;20465;-88
2022/07/26 07:39:13;;;;;;;0.10;0.10;;;;;;;;;;5046678;28;20432;-85
2022/07/26 07:41:39;;;;;;;0.70;0.30;;;;;;;;;;5043172;28;20419;-85
2022/07/26 07:44:06;;;;;;;0.05;0.05;;;;;;;;;;5024761;28;20454;-86
2022/07/26 07:46:32;;;;;;;0.00;0.00;;;;;;;;;;5031197;28;20972;-86
2022/07/26 07:48:58;;;;;;;0.00;0.00;;;;;;;;;;5046947;28;20975;-87
2022/07/26 07:51:26;;;;;;;0.00;0.00;;;;;;;;;;5040901;28;20447;-86
2022/07/26 07:53:52;;;;;;;0.00;0.00;;;;;;;;;;5049225;28;20435;-93
2022/07/26 07:56:21;;;;;;;0.00;0.00;;;;;;;;;;5055028;28;20488;-91
2022/07/26 07:58:49;;;;;;;0.10;0.10;;;;;;;;;;5070012;28;20433;-91
2022/07/26 08:01:15;;;;;;;0.00;0.00;;;;;;;;;;5053612;28;20469;-83
2022/07/26 08:03:41;;;;;;;0.10;0.10;;;;;;;;;;5018726;28;20841;-83
2022/07/26 08:06:08;;;;;;;0.08;0.08;;;;;;;;;;5030260;28;20426;-83
2022/07/26 08:08:34;;;;;;;0.20;0.20;;;;;;;;;;5026526;28;20824;-83
2022/07/26 08:11:01;;;;;;;0.10;0.10;;;;;;;;;;5028545;28;20425;-84
2022/07/26 08:13:27;;;;;;;0.00;0.00;;;;;;;;;;5050248;28;20409;-84
2022/07/26 08:15:54;;;;;;;0.05;0.05;;;;;;;;;;5033327;28;20534;-84
2022/07/26 08:18:21;;;;;;;0.10;0.10;;;;;;;;;;5031878;28;20427;-85
2022/07/26 08:20:47;;;;;;;0.07;0.07;;;;;;;;;;5042459;28;20441;-84
2022/07/26 08:23:13;;;;;;;0.10;0.10;;;;;;;;;;5032981;28;20428;-85
2022/07/26 08:25:39;;;;;;;0.00;0.00;;;;;;;;;;5056034;28;20426;-83
2022/07/26 08:28:05;;;;;;;0.00;0.00;;;;;;;;;;5048357;28;20425;-83
2022/07/26 08:30:32;;;;;;;0.10;0.10;;;;;;;;;;5036775;28;20431;-86
2022/07/26 08:32:58;;;;;;;0.10;0.10;;;;;;;;;;5017328;28;20450;-85
2022/07/26 08:35:24;;;;;;;0.00;0.00;;;;;;;;;;5023011;28;20427;-84
2022/07/26 08:37:50;;;;;;;0.00;0.00;;;;;;;;;;5042244;28;20428;-87
2022/07/26 08:40:16;;;;;;;0.00;0.00;;;;;;;;;;5024778;28;20516;-85
2022/07/26 08:42:53;;;;;;;0.00;0.00;;;;;;;;;;5034446;28;20920;-85
2022/07/26 08:45:22;;;;;;;0.20;0.20;;;;;;;;;;5036191;28;20462;-86
2022/07/26 08:47:48;;;;;;;0.10;0.10;;;;;;;;;;5040170;28;20961;-85
2022/07/26 08:50:15;;;;;;;0.10;0.10;;;;;;;;;;5037675;28;20453;-85
2022/07/26 08:52:41;;;;;;;0.00;0.00;;;;;;;;;;5023872;28;20431;-85
2022/07/26 08:55:08;;;;;;;0.30;0.20;;;;;;;;;;5034930;28;20816;-85
2022/07/26 08:57:34;;;;;;;0.00;0.00;;;;;;;;;;5005797;28;20429;-85
2022/07/26 09:00:14;;;;;;;0.00;0.00;;;;;;;;;;5033862;28;20507;-84
2022/07/26 09:02:43;;;;;;;0.00;0.00;;;;;;;;;;5039989;28;20882;-83
2022/07/26 09:05:09;;;;;;;0.00;0.00;;;;;;;;;;5035979;28;20461;-90
2022/07/26 09:07:35;;;;;;;0.70;0.30;;;;;;;;;;5006571;28;20781;-85
2022/07/26 09:10:03;;;;;;;0.30;0.20;;;;;;;;;;5038487;28;20429;-84
2022/07/26 09:12:30;;;;;;;0.00;0.00;;;;;;;;;;5052963;28;20453;-83
2022/07/26 09:14:56;;;;;;;0.00;0.00;;;;;;;;;;5048450;28;20578;-91
2022/07/26 09:17:23;;;;;;;0.10;0.10;;;;;;;;;;5036717;28;20490;-91
2022/07/26 09:20:10;;;;;;;0.55;0.25;;;;;;;;;;5032805;28;20429;-91
2022/07/26 09:22:37;;;;;;;0.00;0.00;;;;;;;;;;5033008;28;20532;-92
2022/07/26 09:25:19;;;;;;;0.30;0.30;;;;;;;;;;5036710;28;20513;-90
2022/07/26 09:27:48;;;;;;;0.30;0.30;;;;;;;;;;5035793;28;20483;-94
2022/07/26 09:30:16;;;;;;;0.10;0.10;;;;;;;;;;5036713;28;20429;-91
2022/07/26 09:32:55;;;;;;;1.10;0.70;;;;;;;;;;5052903;28;20432;-95
2022/07/26 09:35:21;;;;;;;0.00;0.00;;;;;;;;;;5024408;28;20924;-91
2022/07/26 09:37:47;;;;;;;0.00;0.00;;;;;;;;;;5041925;28;20483;-87
2022/07/26 09:40:15;;;;;;;1.50;0.90;;;;;;;;;;5036171;28;20433;-88
2022/07/26 09:42:57;;;;;;;0.10;0.10;;;;;;;;;;5045872;28;20423;-87
2022/07/26 09:45:24;;;;;;;0.10;0.10;;;;;;;;;;5034016;28;20522;-88
2022/07/26 09:47:50;;;;;;;0.10;0.10;;;;;;;;;;5002074;28;20431;-87
2022/07/26 09:50:18;;;;;;;0.10;0.10;;;;;;;;;;5049512;28;20423;-88
2022/07/26 09:53:03;;;;;;;0.30;0.30;;;;;;;;;;5015752;28;20480;-88
2022/07/26 09:55:30;;;;;;;0.05;0.05;;;;;;;;;;5036441;28;20433;-87
2022/07/26 09:57:58;;;;;;;0.10;0.10;;;;;;;;;;5044748;28;20438;-87
2022/07/26 10:00:25;;;;;;;0.40;0.10;;;;;;;;;;5033115;28;20995;-88
2022/07/26 10:02:54;;;;;;;0.00;0.00;;;;;;;;;;5051053;28;20775;-86
2022/07/26 10:05:20;;;;;;;0.30;0.30;;;;;;;;;;5051631;28;20921;-88
2022/07/26 10:07:48;;;;;;;0.10;0.10;;;;;;;;;;5032966;28;20453;-88
2022/07/26 10:10:17;;;;;;;1.40;0.35;;;;;;;;;;5032725;28;20434;-89
2022/07/26 10:12:45;;;;;;;0.00;0.00;;;;;;;;;;5030052;28;20636;-91
2022/07/26 10:15:30;;;;;;;0.10;0.10;;;;;;;;;;5017250;28;20450;-88
2022/07/26 10:17:56;;;;;;;0.10;0.10;;;;;;;;;;5033967;28;20446;-87
2022/07/26 10:20:55;;;;;;;0.20;0.20;;;;;;;;;;5016219;28;20434;-90
2022/07/26 10:23:37;;;;;;;0.10;0.10;;;;;;;;;;5006342;28;20427;-86
2022/07/26 10:26:05;;;;;;;0.00;0.00;;;;;;;;;;5051565;28;20424;-83
2022/07/26 10:28:32;;;;;;;0.10;0.10;;;;;;;;;;5033066;28;20509;-81
2022/07/26 10:31:17;;;;;;;0.20;0.20;;;;;;;;;;5044992;28;20421;-82
2022/07/26 10:33:46;;;;;;;0.35;0.22;;;;;;;;;;5047791;28;20444;-82
2022/07/26 10:36:26;;;;;;;0.10;0.10;;;;;;;;;;5043992;28;20434;-82
2022/07/26 10:39:18;;;;;;;0.30;0.20;;;;;;;;;;5029688;28;20435;-83
2022/07/26 10:41:46;;;;;;;0.10;0.10;;;;;;;;;;5026539;28;20438;-82
2022/07/26 10:44:15;;;;;;;0.10;0.10;;;;;;;;;;5048380;28;20519;-83
2022/07/26 10:47:01;;;;;;;0.10;0.10;;;;;;;;;;5039051;28;20816;-89
2022/07/26 10:49:32;;;;;;;0.00;0.00;;;;;;;;;;5030728;28;20447;-88
2022/07/26 10:52:08;;;;;;;0.20;0.20;;;;;;;;;;5029028;28;20980;-91
2022/07/26 10:54:53;;;;;;;0.10;0.10;;;;;;;;;;5030675;28;20494;-90
2022/07/26 10:57:19;;;;;;;0.10;0.10;;;;;;;;;;5052766;28;20438;-81
2022/07/26 10:59:45;;;;;;;0.10;0.10;;;;;;;;;;5030384;28;20482;-81
2022/07/26 11:02:21;;;;;;;0.10;0.10;;;;;;;;;;5030149;28;20494;-80
2022/07/26 11:04:48;;;;;;;0.10;0.10;;;;;;;;;;5046469;28;20524;-81
2022/07/26 11:07:14;;;;;;;0.17;0.17;;;;;;;;;;5041320;28;20427;-79
2022/07/26 11:09:41;;;;;;;0.40;0.30;;;;;;;;;;5029075;28;20933;-80
2022/07/26 11:12:23;;;;;;;0.10;0.10;;;;;;;;;;5031468;28;20423;-79
2022/07/26 11:14:49;;;;;;;0.10;0.10;;;;;;;;;;5030619;28;20419;-77
2022/07/26 11:17:25;;;;;;;0.20;0.20;;;;;;;;;;5049375;28;20471;-79
2022/07/26 11:19:51;;;;;;;0.10;0.10;;;;;;;;;;5031786;28;20466;-79
2022/07/26 11:22:17;;;;;;;0.10;0.10;;;;;;;;;;5033477;28;20429;-81
2022/07/26 11:24:44;;;;;;;0.15;0.13;;;;;;;;;;5038590;28;20446;-79
2022/07/26 11:27:10;;;;;;;0.10;0.10;;;;;;;;;;5057374;28;20423;-80
2022/07/26 11:29:37;;;;;;;0.10;0.10;;;;;;;;;;5037368;28;20431;-86
2022/07/26 11:32:04;;;;;;;0.30;0.10;;;;;;;;;;5028825;28;20429;-85
2022/07/26 11:34:32;;;;;;;0.10;0.10;;;;;;;;;;5029853;28;20440;-85
2022/07/26 11:36:59;;;;;;;0.07;0.07;;;;;;;;;;5042633;28;20707;-90
2022/07/26 11:39:26;;;;;;;0.10;0.10;;;;;;;;;;5028550;28;20584;-92
2022/07/26 11:41:59;;;;;;;0.40;0.20;;;;;;;;;;5027732;28;20488;-85
2022/07/26 11:44:26;;;;;;;0.10;0.10;;;;;;;;;;5013578;28;20410;-88
2022/07/26 11:46:52;;;;;;;0.10;0.10;;;;;;;;;;5032858;28;20426;-84
2022/07/26 11:49:19;;;;;;;0.40;0.40;;;;;;;;;;5045400;28;20523;-81
2022/07/26 11:51:51;;;;;;;0.10;0.10;;;;;;;;;;5041370;28;20874;-85
2022/07/26 11:54:18;;;;;;;0.10;0.10;;;;;;;;;;5043265;28;20444;-84
2022/07/26 11:57:03;;;;;;;0.10;0.10;;;;;;;;;;5045311;28;20520;-80
2022/07/26 11:59:33;;;;;;;0.10;0.10;;;;;;;;;;5048344;28;20425;-86
2022/07/26 12:02:01;;;;;;;0.00;0.00;;;;;;;;;;5047605;28;20559;-85
2022/07/26 12:04:28;;;;;;;0.20;0.20;;;;;;;;;;5035301;28;20430;-84
2022/07/26 12:06:55;;;;;;;0.10;0.10;;;;;;;;;;5029633;28;20439;-83
2022/07/26 12:09:47;;;;;;;0.10;0.10;;;;;;;;;;5028737;28;21021;-83
2022/07/26 12:12:26;;;;;;;0.08;0.08;;;;;;;;;;5035090;28;20432;-90
2022/07/26 12:14:59;;;;;;;0.20;0.20;;;;;;;;;;5034646;28;20444;-91
2022/07/26 12:17:25;;;;;;;0.00;0.00;;;;;;;;;;5034030;28;20473;-88
2022/07/26 12:19:52;;;;;;;0.10;0.10;;;;;;;;;;5040879;28;20502;-93
2022/07/26 12:22:18;;;;;;;1.60;0.50;;;;;;;;;;5036755;28;20429;-91
2022/07/26 12:24:51;;;;;;;0.80;0.20;;;;;;;;;;5048444;28;20920;-83
2022/07/26 12:27:22;;;;;;;0.10;0.10;;;;;;;;;;5051978;28;20435;-84
2022/07/26 12:29:52;;;;;;;0.10;0.10;;;;;;;;;;5046721;28;20433;-83
2022/07/26 12:32:22;;;;;;;0.20;0.20;;;;;;;;;;5033884;28;20438;-83
2022/07/26 12:34:56;;;;;;;0.10;0.10;;;;;;;;;;5033530;28;20423;-83
2022/07/26 12:37:22;;;;;;;0.10;0.10;;;;;;;;;;5035870;28;20484;-84
2022/07/26 12:40:08;;;;;;;0.10;0.10;;;;;;;;;;5032053;28;20458;-82
2022/07/26 12:42:37;;;;;;;0.10;0.10;;;;;;;;;;5031713;28;20438;-84
2022/07/26 12:45:05;;;;;;;0.43;0.40;;;;;;;;;;5016280;28;20431;-79
2022/07/26 12:47:31;;;;;;;0.10;0.10;;;;;;;;;;5043224;28;20438;-85
2022/07/26 12:49:57;;;;;;;0.10;0.10;;;;;;;;;;5034210;28;20493;-83
2022/07/26 12:52:23;;;;;;;0.30;0.20;;;;;;;;;;5044201;28;20429;-83
2022/07/26 12:54:50;;;;;;;0.10;0.10;;;;;;;;;;5031722;28;20431;-84
2022/07/26 12:57:18;;;;;;;0.10;0.10;;;;;;;;;;5031122;28;20429;-83
2022/07/26 12:59:44;;;;;;;0.20;0.20;;;;;;;;;;5038007;28;20438;-82
2022/07/26 13:02:10;;;;;;;0.10;0.10;;;;;;;;;;5036869;28;20527;-81
2022/07/26 13:04:37;;;;;;;0.10;0.10;;;;;;;;;;5034279;28;20423;-81
2022/07/26 13:07:03;;;;;;;0.10;0.10;;;;;;;;;;5032484;28;20829;-81
2022/07/26 13:09:31;;;;;;;0.45;0.40;;;;;;;;;;5033693;28;20854;-79
2022/07/26 13:11:57;;;;;;;0.10;0.10;;;;;;;;;;5032434;28;20497;-80
2022/07/26 13:14:23;;;;;;;0.10;0.10;;;;;;;;;;5032239;28;20445;-80
2022/07/26 13:16:50;;;;;;;2.27;0.13;;;;;;;;;;5041900;28;20417;-86
2022/07/26 13:19:16;;;;;;;0.10;0.10;;;;;;;;;;5047799;28;20425;-89
2022/07/26 13:21:42;;;;;;;0.10;0.10;;;;;;;;;;5037385;28;20405;-90
2022/07/26 13:24:08;;;;;;;0.10;0.10;;;;;;;;;;5040333;28;20500;-85
2022/07/26 13:26:34;;;;;;;0.10;0.10;;;;;;;;;;5040540;28;20427;-87
2022/07/26 13:29:01;;;;;;;0.10;0.10;;;;;;;;;;5045278;28;20449;-87
2022/07/26 13:31:27;;;;;;;0.10;0.10;;;;;;;;;;5031685;28;20426;-88
2022/07/26 13:33:53;;;;;;;0.10;0.10;;;;;;;;;;5042414;28;20425;-85
2022/07/26 13:36:19;;;;;;;0.10;0.10;;;;;;;;;;5042061;28;20791;-87
2022/07/26 13:38:45;;;;;;;0.10;0.10;;;;;;;;;;5039828;28;20442;-86
2022/07/26 13:41:11;;;;;;;0.10;0.10;;;;;;;;;;5030860;28;20460;-87
2022/07/26 13:43:37;;;;;;;0.10;0.10;;;;;;;;;;5031897;28;20437;-86
2022/07/26 13:46:03;;;;;;;0.10;0.10;;;;;;;;;;5035838;28;20425;-87
2022/07/26 13:48:29;;;;;;;0.10;0.10;;;;;;;;;;5043252;28;20908;-84
2022/07/26 13:50:56;;;;;;;0.10;0.10;;;;;;;;;;5022348;28;21007;-85
2022/07/26 13:53:23;;;;;;;0.30;0.30;;;;;;;;;;5019513;28;20943;-85
2022/07/26 13:55:49;;;;;;;0.10;0.10;;;;;;;;;;5034019;28;20405;-83
2022/07/26 13:58:15;;;;;;;0.30;0.30;;;;;;;;;;5018676;28;21182;-84
2022/07/26 14:00:41;;;;;;;0.10;0.10;;;;;;;;;;5031003;28;20921;-86
2022/07/26 14:03:07;;;;;;;0.10;0.10;;;;;;;;;;5039838;28;20595;-85
2022/07/26 14:05:33;;;;;;;0.10;0.10;;;;;;;;;;5030930;28;20441;-85
2022/07/26 14:07:59;;;;;;;0.00;0.00;;;;;;;;;;5014242;28;20434;-85
2022/07/26 14:10:25;;;;;;;15.10;0.60;;;;;;;;;;5035529;28;20758;-85
2022/07/26 14:12:52;;;;;;;0.10;0.10;;;;;;;;;;5042665;28;20820;-85
2022/07/26 14:15:18;;;;;;;0.00;0.00;;;;;;;;;;5030196;28;20447;-85
2022/07/26 14:17:45;;;;;;;0.10;0.10;;;;;;;;;;5014570;28;20450;-86
2022/07/26 14:20:12;;;;;;;0.10;0.10;;;;;;;;;;5042942;28;20435;-85
2022/07/26 14:22:38;;;;;;;0.20;0.20;;;;;;;;;;5030982;28;20430;-82
2022/07/26 14:25:05;;;;;;;0.10;0.10;;;;;;;;;;5029004;28;20439;-86
2022/07/26 14:27:31;;;;;;;0.20;0.20;;;;;;;;;;5044535;28;20417;-86
2022/07/26 14:29:57;;;;;;;0.10;0.10;;;;;;;;;;5045185;28;20445;-82
2022/07/26 14:32:23;;;;;;;0.10;0.10;;;;;;;;;;5046796;28;20425;-86
2022/07/26 14:34:50;;;;;;;0.10;0.10;;;;;;;;;;5043248;28;20437;-85
2022/07/26 14:37:16;;;;;;;0.10;0.10;;;;;;;;;;5044192;28;20429;-87
2022/07/26 14:39:42;;;;;;;0.10;0.10;;;;;;;;;;5032567;28;20440;-83
2022/07/26 14:42:08;;;;;;;0.10;0.10;;;;;;;;;;5047984;28;20519;-84
2022/07/26 14:44:34;;;;;;;0.10;0.10;;;;;;;;;;5042118;28;21234;-84